aviador You're here:

OINN Decoded Metar

NOSHAHR in IRAN
Report Time2017-12-11 05:00:00
UTC Time2017-12-11 05:35:41
Flight Rules vfr VFR
Wind210° at 04 kt
W.Decomp.*RWY 28: 1.1 kt HW 3.8 kt LCW
W.Rank210° ranks 5
Current wind is below 210° avg. (4.5)
Visibility9999 m
Phenomena:N/A
Clouds:N/A
Expected CloudBase > 2,400 ft AGL from Temp-Dew spread
CeilingNone
Temp07°C (ISA -8)
Dew Point01°C (66% RH)
AAT3.7°C
QNH1019 hPa
Density Alt-1,155 ft
Elevation-62 ft
Report Wrong Elevation
Raw Report
OINN 110500Z 21004KT CAVOK 07/01 Q1019=

Extra information for OINN:More info

Metar Taf Metar & Taf Last 4 Metars F.Rules Stats Wind Profile Meteogram Temp Stats Airport Information Weather charts Add Link Nearby VenuesMetar ALERT Operation Metar Decoded Social comments